sensor_id;sensor_type;location;lat;lon;timestamp;P1;durP1;ratioP1;P2;durP2;ratioP2
42700;SDS011;28316;49.504;8.526;2023-03-21T00:01:11;3.63;;;2.08;;
42700;SDS011;28316;49.504;8.526;2023-03-21T00:03:38;2.70;;;1.63;;
42700;SDS011;28316;49.504;8.526;2023-03-21T00:06:09;5.97;;;1.90;;
42700;SDS011;28316;49.504;8.526;2023-03-21T00:08:37;3.05;;;1.65;;
42700;SDS011;28316;49.504;8.526;2023-03-21T00:11:05;8.27;;;2.33;;
42700;SDS011;28316;49.504;8.526;2023-03-21T00:13:33;4.20;;;1.50;;
42700;SDS011;28316;49.504;8.526;2023-03-21T00:16:06;5.65;;;2.28;;
42700;SDS011;28316;49.504;8.526;2023-03-21T00:18:41;3.10;;;1.80;;
42700;SDS011;28316;49.504;8.526;2023-03-21T00:21:11;6.05;;;1.60;;
42700;SDS011;28316;49.504;8.526;2023-03-21T00:23:43;7.47;;;2.28;;
42700;SDS011;28316;49.504;8.526;2023-03-21T00:26:10;3.78;;;1.90;;
42700;SDS011;28316;49.504;8.526;2023-03-21T00:28:37;3.90;;;2.30;;
42700;SDS011;28316;49.504;8.526;2023-03-21T00:31:05;2.92;;;2.10;;
42700;SDS011;28316;49.504;8.526;2023-03-21T00:33:32;6.72;;;2.13;;
42700;SDS011;28316;49.504;8.526;2023-03-21T00:35:59;5.43;;;1.63;;
42700;SDS011;28316;49.504;8.526;2023-03-21T00:38:26;3.22;;;1.52;;
42700;SDS011;28316;49.504;8.526;2023-03-21T00:40:53;6.15;;;1.77;;
42700;SDS011;28316;49.504;8.526;2023-03-21T00:43:18;7.50;;;3.00;;
42700;SDS011;28316;49.504;8.526;2023-03-21T00:45:47;2.58;;;1.55;;
42700;SDS011;28316;49.504;8.526;2023-03-21T00:48:15;3.10;;;1.58;;
42700;SDS011;28316;49.504;8.526;2023-03-21T00:50:43;5.45;;;2.05;;
42700;SDS011;28316;49.504;8.526;2023-03-21T00:53:11;4.45;;;1.70;;
42700;SDS011;28316;49.504;8.526;2023-03-21T00:55:38;4.30;;;1.75;;
42700;SDS011;28316;49.504;8.526;2023-03-21T00:58:04;3.30;;;1.90;;
42700;SDS011;28316;49.504;8.526;2023-03-21T01:00:30;5.05;;;1.83;;
42700;SDS011;28316;49.504;8.526;2023-03-21T01:02:58;3.35;;;1.58;;
42700;SDS011;28316;49.504;8.526;2023-03-21T01:05:30;4.60;;;1.55;;
42700;SDS011;28316;49.504;8.526;2023-03-21T01:08:20;4.95;;;2.13;;
42700;SDS011;28316;49.504;8.526;2023-03-21T01:10:48;6.60;;;2.35;;
42700;SDS011;28316;49.504;8.526;2023-03-21T01:13:16;3.42;;;2.10;;
42700;SDS011;28316;49.504;8.526;2023-03-21T01:15:49;4.70;;;1.50;;
42700;SDS011;28316;49.504;8.526;2023-03-21T01:18:18;5.28;;;2.03;;
42700;SDS011;28316;49.504;8.526;2023-03-21T01:20:49;4.32;;;1.98;;
42700;SDS011;28316;49.504;8.526;2023-03-21T01:23:15;9.63;;;2.13;;
42700;SDS011;28316;49.504;8.526;2023-03-21T01:25:41;4.55;;;1.98;;
42700;SDS011;28316;49.504;8.526;2023-03-21T01:28:08;5.18;;;2.38;;
42700;SDS011;28316;49.504;8.526;2023-03-21T01:30:34;4.53;;;2.55;;
42700;SDS011;28316;49.504;8.526;2023-03-21T01:33:00;4.75;;;1.85;;
42700;SDS011;28316;49.504;8.526;2023-03-21T01:35:26;7.28;;;2.15;;
42700;SDS011;28316;49.504;8.526;2023-03-21T01:37:52;5.97;;;2.00;;
42700;SDS011;28316;49.504;8.526;2023-03-21T01:40:22;4.50;;;2.17;;
42700;SDS011;28316;49.504;8.526;2023-03-21T01:42:50;5.70;;;1.70;;
42700;SDS011;28316;49.504;8.526;2023-03-21T01:48:39;2.35;;;1.40;;
42700;SDS011;28316;49.504;8.526;2023-03-21T01:51:08;2.78;;;1.70;;
42700;SDS011;28316;49.504;8.526;2023-03-21T01:53:36;2.00;;;1.25;;
42700;SDS011;28316;49.504;8.526;2023-03-21T01:56:14;6.93;;;2.15;;
42700;SDS011;28316;49.504;8.526;2023-03-21T01:58:50;4.03;;;1.80;;
42700;SDS011;28316;49.504;8.526;2023-03-21T02:01:21;3.70;;;1.85;;
42700;SDS011;28316;49.504;8.526;2023-03-21T02:03:47;4.63;;;2.30;;
42700;SDS011;28316;49.504;8.526;2023-03-21T02:06:58;4.30;;;2.17;;
42700;SDS011;28316;49.504;8.526;2023-03-21T02:09:29;7.65;;;2.13;;
42700;SDS011;28316;49.504;8.526;2023-03-21T02:11:59;5.25;;;2.55;;
42700;SDS011;28316;49.504;8.526;2023-03-21T02:14:26;8.57;;;2.58;;
42700;SDS011;28316;49.504;8.526;2023-03-21T02:19:45;5.00;;;1.50;;
42700;SDS011;28316;49.504;8.526;2023-03-21T02:38:17;4.30;;;1.83;;
42700;SDS011;28316;49.504;8.526;2023-03-21T02:41:18;5.65;;;2.08;;
42700;SDS011;28316;49.504;8.526;2023-03-21T02:47:19;8.18;;;2.40;;
42700;SDS011;28316;49.504;8.526;2023-03-21T02:52:56;2.50;;;1.55;;
42700;SDS011;28316;49.504;8.526;2023-03-21T02:55:25;4.13;;;1.48;;
42700;SDS011;28316;49.504;8.526;2023-03-21T02:57:55;3.28;;;1.83;;
42700;SDS011;28316;49.504;8.526;2023-03-21T03:00:32;3.60;;;1.80;;
42700;SDS011;28316;49.504;8.526;2023-03-21T03:02:58;11.93;;;2.10;;
42700;SDS011;28316;49.504;8.526;2023-03-21T03:05:29;8.38;;;1.90;;
42700;SDS011;28316;49.504;8.526;2023-03-21T03:11:05;3.63;;;1.58;;
42700;SDS011;28316;49.504;8.526;2023-03-21T03:20:08;3.70;;;2.15;;
42700;SDS011;28316;49.504;8.526;2023-03-21T03:26:10;3.97;;;2.45;;
42700;SDS011;28316;49.504;8.526;2023-03-21T03:28:48;2.67;;;1.58;;
42700;SDS011;28316;49.504;8.526;2023-03-21T03:31:28;5.60;;;1.92;;
42700;SDS011;28316;49.504;8.526;2023-03-21T03:34:05;5.15;;;1.58;;
42700;SDS011;28316;49.504;8.526;2023-03-21T03:36:40;3.17;;;1.50;;
42700;SDS011;28316;49.504;8.526;2023-03-21T03:39:12;3.45;;;1.88;;
42700;SDS011;28316;49.504;8.526;2023-03-21T03:41:53;3.40;;;1.60;;
42700;SDS011;28316;49.504;8.526;2023-03-21T03:44:46;5.50;;;1.80;;
42700;SDS011;28316;49.504;8.526;2023-03-21T03:47:16;3.35;;;1.73;;
42700;SDS011;28316;49.504;8.526;2023-03-21T03:50:01;3.70;;;1.50;;
42700;SDS011;28316;49.504;8.526;2023-03-21T03:52:43;4.50;;;1.73;;
42700;SDS011;28316;49.504;8.526;2023-03-21T03:55:28;3.60;;;2.03;;
42700;SDS011;28316;49.504;8.526;2023-03-21T03:57:58;4.65;;;1.83;;
42700;SDS011;28316;49.504;8.526;2023-03-21T04:00:26;3.17;;;1.73;;
42700;SDS011;28316;49.504;8.526;2023-03-21T04:02:55;5.47;;;1.75;;
42700;SDS011;28316;49.504;8.526;2023-03-21T04:05:24;6.43;;;2.45;;
42700;SDS011;28316;49.504;8.526;2023-03-21T04:07:50;8.52;;;2.10;;
42700;SDS011;28316;49.504;8.526;2023-03-21T04:10:17;3.00;;;1.83;;
42700;SDS011;28316;49.504;8.526;2023-03-21T04:12:44;5.53;;;2.95;;
42700;SDS011;28316;49.504;8.526;2023-03-21T04:15:10;3.80;;;2.22;;
42700;SDS011;28316;49.504;8.526;2023-03-21T04:17:37;4.20;;;2.33;;
42700;SDS011;28316;49.504;8.526;2023-03-21T04:20:04;6.72;;;2.15;;
42700;SDS011;28316;49.504;8.526;2023-03-21T04:22:31;3.70;;;2.00;;
42700;SDS011;28316;49.504;8.526;2023-03-21T04:24:58;13.02;;;2.22;;
42700;SDS011;28316;49.504;8.526;2023-03-21T04:27:25;4.10;;;2.10;;
42700;SDS011;28316;49.504;8.526;2023-03-21T04:29:52;4.10;;;1.67;;
42700;SDS011;28316;49.504;8.526;2023-03-21T04:32:17;12.32;;;2.42;;
42700;SDS011;28316;49.504;8.526;2023-03-21T04:34:44;5.68;;;2.83;;
42700;SDS011;28316;49.504;8.526;2023-03-21T04:37:18;3.63;;;2.20;;
42700;SDS011;28316;49.504;8.526;2023-03-21T04:39:47;4.00;;;1.90;;
42700;SDS011;28316;49.504;8.526;2023-03-21T04:42:14;3.03;;;1.88;;
42700;SDS011;28316;49.504;8.526;2023-03-21T04:44:46;7.03;;;2.33;;
42700;SDS011;28316;49.504;8.526;2023-03-21T04:47:13;5.22;;;2.25;;
42700;SDS011;28316;49.504;8.526;2023-03-21T04:49:40;3.20;;;2.00;;
42700;SDS011;28316;49.504;8.526;2023-03-21T04:52:07;4.05;;;2.40;;
42700;SDS011;28316;49.504;8.526;2023-03-21T04:54:33;6.13;;;2.60;;
42700;SDS011;28316;49.504;8.526;2023-03-21T04:56:59;4.22;;;1.98;;
42700;SDS011;28316;49.504;8.526;2023-03-21T04:59:25;6.90;;;4.10;;
42700;SDS011;28316;49.504;8.526;2023-03-21T05:01:51;7.97;;;3.08;;
42700;SDS011;28316;49.504;8.526;2023-03-21T05:04:17;2.90;;;1.60;;
42700;SDS011;28316;49.504;8.526;2023-03-21T05:06:44;5.03;;;2.45;;
42700;SDS011;28316;49.504;8.526;2023-03-21T05:09:10;4.00;;;2.25;;
42700;SDS011;28316;49.504;8.526;2023-03-21T05:11:38;3.85;;;1.98;;
42700;SDS011;28316;49.504;8.526;2023-03-21T05:14:06;9.32;;;2.53;;
42700;SDS011;28316;49.504;8.526;2023-03-21T05:16:34;8.60;;;2.88;;
42700;SDS011;28316;49.504;8.526;2023-03-21T05:19:02;4.07;;;2.47;;
42700;SDS011;28316;49.504;8.526;2023-03-21T05:21:29;7.97;;;2.50;;
42700;SDS011;28316;49.504;8.526;2023-03-21T05:24:06;6.50;;;3.45;;
42700;SDS011;28316;49.504;8.526;2023-03-21T05:26:38;2.60;;;1.95;;
42700;SDS011;28316;49.504;8.526;2023-03-21T05:29:05;6.28;;;2.70;;
42700;SDS011;28316;49.504;8.526;2023-03-21T05:31:31;4.75;;;2.35;;
42700;SDS011;28316;49.504;8.526;2023-03-21T05:33:57;4.63;;;3.03;;
42700;SDS011;28316;49.504;8.526;2023-03-21T05:36:23;7.97;;;2.78;;
42700;SDS011;28316;49.504;8.526;2023-03-21T05:38:49;8.60;;;3.38;;
42700;SDS011;28316;49.504;8.526;2023-03-21T05:41:16;4.40;;;2.53;;
42700;SDS011;28316;49.504;8.526;2023-03-21T05:43:42;3.33;;;2.10;;
42700;SDS011;28316;49.504;8.526;2023-03-21T05:46:09;7.05;;;2.95;;
42700;SDS011;28316;49.504;8.526;2023-03-21T05:48:36;9.35;;;3.80;;
42700;SDS011;28316;49.504;8.526;2023-03-21T05:51:02;9.10;;;3.10;;
42700;SDS011;28316;49.504;8.526;2023-03-21T05:53:29;7.43;;;2.83;;
42700;SDS011;28316;49.504;8.526;2023-03-21T05:55:54;9.48;;;2.55;;
42700;SDS011;28316;49.504;8.526;2023-03-21T05:58:21;10.43;;;3.67;;
42700;SDS011;28316;49.504;8.526;2023-03-21T06:00:46;14.15;;;4.22;;
42700;SDS011;28316;49.504;8.526;2023-03-21T06:03:12;10.25;;;3.97;;
42700;SDS011;28316;49.504;8.526;2023-03-21T06:05:38;8.30;;;2.45;;
42700;SDS011;28316;49.504;8.526;2023-03-21T06:08:04;10.43;;;3.58;;
42700;SDS011;28316;49.504;8.526;2023-03-21T06:10:30;7.65;;;3.35;;
42700;SDS011;28316;49.504;8.526;2023-03-21T06:12:55;5.63;;;2.50;;
42700;SDS011;28316;49.504;8.526;2023-03-21T06:15:21;7.95;;;3.40;;
42700;SDS011;28316;49.504;8.526;2023-03-21T06:17:47;5.78;;;3.03;;
42700;SDS011;28316;49.504;8.526;2023-03-21T06:20:13;6.13;;;2.42;;
42700;SDS011;28316;49.504;8.526;2023-03-21T06:22:39;6.53;;;2.70;;
42700;SDS011;28316;49.504;8.526;2023-03-21T06:25:05;4.63;;;3.58;;
42700;SDS011;28316;49.504;8.526;2023-03-21T06:27:32;8.27;;;2.45;;
42700;SDS011;28316;49.504;8.526;2023-03-21T06:29:59;5.22;;;2.88;;
42700;SDS011;28316;49.504;8.526;2023-03-21T06:32:25;9.73;;;3.53;;
42700;SDS011;28316;49.504;8.526;2023-03-21T06:34:52;6.95;;;3.58;;
42700;SDS011;28316;49.504;8.526;2023-03-21T06:37:18;7.53;;;4.22;;
42700;SDS011;28316;49.504;8.526;2023-03-21T06:39:44;14.02;;;3.80;;
42700;SDS011;28316;49.504;8.526;2023-03-21T06:42:11;6.82;;;3.30;;
42700;SDS011;28316;49.504;8.526;2023-03-21T06:44:38;8.02;;;3.38;;
42700;SDS011;28316;49.504;8.526;2023-03-21T06:47:03;6.43;;;3.08;;
42700;SDS011;28316;49.504;8.526;2023-03-21T06:49:29;7.63;;;3.63;;
42700;SDS011;28316;49.504;8.526;2023-03-21T06:51:56;6.40;;;3.10;;
42700;SDS011;28316;49.504;8.526;2023-03-21T06:54:22;5.68;;;3.45;;
42700;SDS011;28316;49.504;8.526;2023-03-21T06:56:47;6.15;;;3.53;;
42700;SDS011;28316;49.504;8.526;2023-03-21T06:59:13;7.82;;;3.80;;
42700;SDS011;28316;49.504;8.526;2023-03-21T07:01:39;8.82;;;3.83;;
42700;SDS011;28316;49.504;8.526;2023-03-21T07:04:06;7.15;;;3.33;;
42700;SDS011;28316;49.504;8.526;2023-03-21T07:06:33;9.73;;;3.67;;
42700;SDS011;28316;49.504;8.526;2023-03-21T07:09:00;6.40;;;3.97;;
42700;SDS011;28316;49.504;8.526;2023-03-21T07:11:26;5.88;;;3.58;;
42700;SDS011;28316;49.504;8.526;2023-03-21T07:13:52;5.20;;;3.17;;
42700;SDS011;28316;49.504;8.526;2023-03-21T07:16:18;7.97;;;2.70;;
42700;SDS011;28316;49.504;8.526;2023-03-21T07:18:45;6.85;;;3.65;;
42700;SDS011;28316;49.504;8.526;2023-03-21T07:21:12;5.30;;;3.00;;
42700;SDS011;28316;49.504;8.526;2023-03-21T07:23:38;7.57;;;2.78;;
42700;SDS011;28316;49.504;8.526;2023-03-21T07:26:04;9.48;;;2.65;;
42700;SDS011;28316;49.504;8.526;2023-03-21T07:28:30;15.93;;;3.08;;
42700;SDS011;28316;49.504;8.526;2023-03-21T07:30:58;8.95;;;3.38;;
42700;SDS011;28316;49.504;8.526;2023-03-21T07:33:26;4.45;;;2.30;;
42700;SDS011;28316;49.504;8.526;2023-03-21T07:35:53;6.25;;;2.38;;
42700;SDS011;28316;49.504;8.526;2023-03-21T07:38:21;8.57;;;3.95;;
42700;SDS011;28316;49.504;8.526;2023-03-21T07:40:47;4.80;;;3.00;;
42700;SDS011;28316;49.504;8.526;2023-03-21T07:43:13;9.65;;;4.25;;
42700;SDS011;28316;49.504;8.526;2023-03-21T07:45:41;8.95;;;3.83;;
42700;SDS011;28316;49.504;8.526;2023-03-21T07:48:08;6.07;;;2.63;;
42700;SDS011;28316;49.504;8.526;2023-03-21T07:50:37;4.75;;;2.10;;
42700;SDS011;28316;49.504;8.526;2023-03-21T07:53:04;7.95;;;2.80;;
42700;SDS011;28316;49.504;8.526;2023-03-21T07:55:30;5.65;;;2.83;;
42700;SDS011;28316;49.504;8.526;2023-03-21T07:57:59;12.13;;;4.10;;
42700;SDS011;28316;49.504;8.526;2023-03-21T08:00:28;6.35;;;2.78;;
42700;SDS011;28316;49.504;8.526;2023-03-21T08:02:55;10.95;;;3.30;;
42700;SDS011;28316;49.504;8.526;2023-03-21T08:05:27;7.65;;;3.22;;
42700;SDS011;28316;49.504;8.526;2023-03-21T08:07:57;4.22;;;2.75;;
42700;SDS011;28316;49.504;8.526;2023-03-21T08:10:23;7.85;;;2.45;;
42700;SDS011;28316;49.504;8.526;2023-03-21T08:12:49;5.68;;;3.08;;
42700;SDS011;28316;49.504;8.526;2023-03-21T08:15:15;3.40;;;2.20;;
42700;SDS011;28316;49.504;8.526;2023-03-21T08:17:41;5.25;;;2.50;;
42700;SDS011;28316;49.504;8.526;2023-03-21T08:20:10;5.32;;;2.72;;
42700;SDS011;28316;49.504;8.526;2023-03-21T08:22:41;7.63;;;2.80;;
42700;SDS011;28316;49.504;8.526;2023-03-21T08:25:08;5.75;;;2.08;;
42700;SDS011;28316;49.504;8.526;2023-03-21T08:27:38;7.32;;;2.55;;
42700;SDS011;28316;49.504;8.526;2023-03-21T08:30:08;8.73;;;2.83;;
42700;SDS011;28316;49.504;8.526;2023-03-21T08:32:37;5.32;;;3.00;;
42700;SDS011;28316;49.504;8.526;2023-03-21T08:35:05;25.85;;;5.15;;
42700;SDS011;28316;49.504;8.526;2023-03-21T08:37:34;9.57;;;3.00;;
42700;SDS011;28316;49.504;8.526;2023-03-21T08:40:06;4.97;;;2.50;;
42700;SDS011;28316;49.504;8.526;2023-03-21T08:42:40;5.50;;;3.08;;
42700;SDS011;28316;49.504;8.526;2023-03-21T08:45:08;3.88;;;2.38;;
42700;SDS011;28316;49.504;8.526;2023-03-21T08:47:35;6.25;;;3.08;;
42700;SDS011;28316;49.504;8.526;2023-03-21T08:50:02;12.40;;;4.28;;
42700;SDS011;28316;49.504;8.526;2023-03-21T08:52:30;6.80;;;2.63;;
42700;SDS011;28316;49.504;8.526;2023-03-21T08:54:57;25.05;;;5.75;;
42700;SDS011;28316;49.504;8.526;2023-03-21T08:57:22;92.05;;;20.90;;
42700;SDS011;28316;49.504;8.526;2023-03-21T09:00:11;53.40;;;16.15;;
42700;SDS011;28316;49.504;8.526;2023-03-21T09:02:41;5.88;;;4.07;;
42700;SDS011;28316;49.504;8.526;2023-03-21T09:05:12;22.00;;;4.93;;
42700;SDS011;28316;49.504;8.526;2023-03-21T09:07:40;27.10;;;6.28;;
42700;SDS011;28316;49.504;8.526;2023-03-21T09:10:08;8.38;;;3.03;;
42700;SDS011;28316;49.504;8.526;2023-03-21T09:12:41;7.50;;;2.63;;
42700;SDS011;28316;49.504;8.526;2023-03-21T09:15:08;15.38;;;4.38;;
42700;SDS011;28316;49.504;8.526;2023-03-21T09:17:36;19.33;;;4.93;;
42700;SDS011;28316;49.504;8.526;2023-03-21T09:20:07;17.80;;;5.55;;
42700;SDS011;28316;49.504;8.526;2023-03-21T09:22:48;6.35;;;3.08;;
42700;SDS011;28316;49.504;8.526;2023-03-21T09:25:18;3.95;;;1.88;;
42700;SDS011;28316;49.504;8.526;2023-03-21T09:27:45;4.25;;;2.55;;
42700;SDS011;28316;49.504;8.526;2023-03-21T09:30:15;5.00;;;1.98;;
42700;SDS011;28316;49.504;8.526;2023-03-21T09:32:44;8.48;;;2.38;;
42700;SDS011;28316;49.504;8.526;2023-03-21T09:35:17;4.80;;;1.90;;
42700;SDS011;28316;49.504;8.526;2023-03-21T09:37:47;6.30;;;2.97;;
42700;SDS011;28316;49.504;8.526;2023-03-21T09:45:45;6.18;;;2.45;;
42700;SDS011;28316;49.504;8.526;2023-03-21T09:48:57;4.60;;;2.17;;
42700;SDS011;28316;49.504;8.526;2023-03-21T09:51:33;4.25;;;1.83;;
42700;SDS011;28316;49.504;8.526;2023-03-21T09:54:06;5.30;;;2.00;;
42700;SDS011;28316;49.504;8.526;2023-03-21T09:56:48;15.38;;;2.50;;
42700;SDS011;28316;49.504;8.526;2023-03-21T09:59:20;5.55;;;2.08;;
42700;SDS011;28316;49.504;8.526;2023-03-21T10:01:55;3.85;;;2.53;;
42700;SDS011;28316;49.504;8.526;2023-03-21T10:04:24;4.53;;;2.15;;
42700;SDS011;28316;49.504;8.526;2023-03-21T10:06:58;3.75;;;1.63;;
42700;SDS011;28316;49.504;8.526;2023-03-21T10:09:28;5.30;;;2.10;;
42700;SDS011;28316;49.504;8.526;2023-03-21T10:12:01;10.45;;;1.90;;
42700;SDS011;28316;49.504;8.526;2023-03-21T10:14:46;3.95;;;1.50;;
42700;SDS011;28316;49.504;8.526;2023-03-21T10:20:17;5.18;;;1.80;;
42700;SDS011;28316;49.504;8.526;2023-03-21T10:22:51;6.20;;;2.13;;
42700;SDS011;28316;49.504;8.526;2023-03-21T10:25:32;6.03;;;2.13;;
42700;SDS011;28316;49.504;8.526;2023-03-21T10:28:10;6.72;;;2.40;;
42700;SDS011;28316;49.504;8.526;2023-03-21T10:30:49;5.55;;;1.80;;
42700;SDS011;28316;49.504;8.526;2023-03-21T10:33:22;14.05;;;1.92;;
42700;SDS011;28316;49.504;8.526;2023-03-21T10:36:07;19.40;;;1.80;;
42700;SDS011;28316;49.504;8.526;2023-03-21T10:39:03;4.57;;;1.50;;
42700;SDS011;28316;49.504;8.526;2023-03-21T10:41:32;3.40;;;1.65;;
42700;SDS011;28316;49.504;8.526;2023-03-21T10:44:11;2.47;;;1.40;;
42700;SDS011;28316;49.504;8.526;2023-03-21T10:47:18;7.80;;;2.78;;
42700;SDS011;28316;49.504;8.526;2023-03-21T10:49:37;6.10;;;1.90;;
42700;SDS011;28316;49.504;8.526;2023-03-21T10:52:04;7.45;;;2.38;;
42700;SDS011;28316;49.504;8.526;2023-03-21T10:54:42;3.13;;;1.67;;
42700;SDS011;28316;49.504;8.526;2023-03-21T10:57:10;6.22;;;3.03;;
42700;SDS011;28316;49.504;8.526;2023-03-21T10:59:46;5.45;;;2.78;;
42700;SDS011;28316;49.504;8.526;2023-03-21T11:02:25;5.47;;;2.25;;
42700;SDS011;28316;49.504;8.526;2023-03-21T11:04:56;7.97;;;3.55;;
42700;SDS011;28316;49.504;8.526;2023-03-21T11:07:43;3.42;;;1.70;;
42700;SDS011;28316;49.504;8.526;2023-03-21T11:10:14;6.55;;;1.40;;
42700;SDS011;28316;49.504;8.526;2023-03-21T11:12:54;2.70;;;1.70;;
42700;SDS011;28316;49.504;8.526;2023-03-21T11:15:30;8.85;;;1.50;;
42700;SDS011;28316;49.504;8.526;2023-03-21T11:17:57;4.68;;;1.73;;
42700;SDS011;28316;49.504;8.526;2023-03-21T11:20:39;4.40;;;1.70;;
42700;SDS011;28316;49.504;8.526;2023-03-21T11:23:27;2.63;;;1.48;;
42700;SDS011;28316;49.504;8.526;2023-03-21T11:25:57;3.03;;;1.40;;
42700;SDS011;28316;49.504;8.526;2023-03-21T11:28:32;2.80;;;1.52;;
42700;SDS011;28316;49.504;8.526;2023-03-21T11:31:02;4.20;;;1.35;;
42700;SDS011;28316;49.504;8.526;2023-03-21T11:33:45;4.63;;;1.75;;
42700;SDS011;28316;49.504;8.526;2023-03-21T11:38:47;2.85;;;1.30;;
42700;SDS011;28316;49.504;8.526;2023-03-21T11:41:29;3.60;;;1.83;;
42700;SDS011;28316;49.504;8.526;2023-03-21T11:43:58;5.28;;;2.13;;
42700;SDS011;28316;49.504;8.526;2023-03-21T11:46:29;3.38;;;1.55;;
42700;SDS011;28316;49.504;8.526;2023-03-21T11:49:03;14.13;;;2.47;;
42700;SDS011;28316;49.504;8.526;2023-03-21T11:51:38;4.32;;;1.75;;
42700;SDS011;28316;49.504;8.526;2023-03-21T11:56:50;4.38;;;1.52;;
42700;SDS011;28316;49.504;8.526;2023-03-21T12:05:16;2.80;;;1.42;;
42700;SDS011;28316;49.504;8.526;2023-03-21T12:07:54;5.32;;;1.80;;
42700;SDS011;28316;49.504;8.526;2023-03-21T12:22:23;3.90;;;1.48;;
42700;SDS011;28316;49.504;8.526;2023-03-21T12:37:56;4.22;;;1.65;;
42700;SDS011;28316;49.504;8.526;2023-03-21T12:40:50;8.18;;;1.65;;
42700;SDS011;28316;49.504;8.526;2023-03-21T12:43:32;3.00;;;1.42;;
42700;SDS011;28316;49.504;8.526;2023-03-21T12:49:09;3.72;;;1.25;;
42700;SDS011;28316;49.504;8.526;2023-03-21T12:51:59;6.20;;;2.10;;
42700;SDS011;28316;49.504;8.526;2023-03-21T12:54:48;4.13;;;1.48;;
42700;SDS011;28316;49.504;8.526;2023-03-21T13:00:11;2.53;;;1.10;;
42700;SDS011;28316;49.504;8.526;2023-03-21T13:02:56;2.42;;;1.02;;
42700;SDS011;28316;49.504;8.526;2023-03-21T13:05:47;2.42;;;1.23;;
42700;SDS011;28316;49.504;8.526;2023-03-21T13:08:27;3.65;;;1.33;;
42700;SDS011;28316;49.504;8.526;2023-03-21T13:10:56;1.90;;;1.17;;
42700;SDS011;28316;49.504;8.526;2023-03-21T13:13:25;3.25;;;1.08;;
42700;SDS011;28316;49.504;8.526;2023-03-21T13:16:22;6.32;;;1.38;;
42700;SDS011;28316;49.504;8.526;2023-03-21T13:18:56;2.10;;;1.00;;
42700;SDS011;28316;49.504;8.526;2023-03-21T13:22:10;3.30;;;1.02;;
42700;SDS011;28316;49.504;8.526;2023-03-21T13:25:05;3.33;;;1.13;;
42700;SDS011;28316;49.504;8.526;2023-03-21T13:27:41;4.22;;;1.10;;
42700;SDS011;28316;49.504;8.526;2023-03-21T13:33:02;5.85;;;1.35;;
42700;SDS011;28316;49.504;8.526;2023-03-21T13:35:40;5.60;;;1.67;;
42700;SDS011;28316;49.504;8.526;2023-03-21T13:38:18;2.03;;;1.30;;
42700;SDS011;28316;49.504;8.526;2023-03-21T13:40:49;2.95;;;1.20;;
42700;SDS011;28316;49.504;8.526;2023-03-21T13:54:16;6.53;;;2.42;;
42700;SDS011;28316;49.504;8.526;2023-03-21T13:56:53;6.78;;;1.50;;
42700;SDS011;28316;49.504;8.526;2023-03-21T13:59:40;3.25;;;1.58;;
42700;SDS011;28316;49.504;8.526;2023-03-21T14:04:37;3.83;;;1.83;;
42700;SDS011;28316;49.504;8.526;2023-03-21T14:07:09;5.50;;;1.45;;
42700;SDS011;28316;49.504;8.526;2023-03-21T14:09:41;10.52;;;2.30;;
42700;SDS011;28316;49.504;8.526;2023-03-21T14:17:27;3.10;;;1.48;;
42700;SDS011;28316;49.504;8.526;2023-03-21T14:20:08;3.65;;;1.90;;
42700;SDS011;28316;49.504;8.526;2023-03-21T14:22:47;4.65;;;2.20;;
42700;SDS011;28316;49.504;8.526;2023-03-21T14:25:14;3.67;;;1.63;;
42700;SDS011;28316;49.504;8.526;2023-03-21T14:27:43;3.47;;;1.70;;
42700;SDS011;28316;49.504;8.526;2023-03-21T14:30:22;6.13;;;1.95;;
42700;SDS011;28316;49.504;8.526;2023-03-21T14:36:14;2.22;;;1.25;;
42700;SDS011;28316;49.504;8.526;2023-03-21T14:38:51;2.17;;;1.13;;
42700;SDS011;28316;49.504;8.526;2023-03-21T14:41:53;4.60;;;1.80;;
42700;SDS011;28316;49.504;8.526;2023-03-21T14:44:33;6.18;;;1.80;;
42700;SDS011;28316;49.504;8.526;2023-03-21T14:47:07;2.15;;;1.33;;
42700;SDS011;28316;49.504;8.526;2023-03-21T14:49:43;5.38;;;2.05;;
42700;SDS011;28316;49.504;8.526;2023-03-21T14:52:13;3.38;;;1.60;;
42700;SDS011;28316;49.504;8.526;2023-03-21T14:54:50;5.00;;;2.45;;
42700;SDS011;28316;49.504;8.526;2023-03-21T14:57:20;3.95;;;2.50;;
42700;SDS011;28316;49.504;8.526;2023-03-21T14:59:53;3.08;;;1.80;;
42700;SDS011;28316;49.504;8.526;2023-03-21T15:02:34;4.10;;;1.85;;
42700;SDS011;28316;49.504;8.526;2023-03-21T15:05:08;2.58;;;1.52;;
42700;SDS011;28316;49.504;8.526;2023-03-21T15:07:54;2.88;;;1.17;;
42700;SDS011;28316;49.504;8.526;2023-03-21T15:10:35;5.90;;;1.40;;
42700;SDS011;28316;49.504;8.526;2023-03-21T15:13:13;2.33;;;1.00;;
42700;SDS011;28316;49.504;8.526;2023-03-21T15:15:42;1.63;;;0.90;;
42700;SDS011;28316;49.504;8.526;2023-03-21T15:18:10;4.10;;;1.83;;
42700;SDS011;28316;49.504;8.526;2023-03-21T15:20:43;3.95;;;1.90;;
42700;SDS011;28316;49.504;8.526;2023-03-21T15:23:14;5.18;;;1.48;;
42700;SDS011;28316;49.504;8.526;2023-03-21T15:25:54;4.07;;;2.10;;
42700;SDS011;28316;49.504;8.526;2023-03-21T15:28:20;6.70;;;2.72;;
42700;SDS011;28316;49.504;8.526;2023-03-21T15:30:49;6.80;;;2.80;;
42700;SDS011;28316;49.504;8.526;2023-03-21T15:33:17;4.90;;;1.27;;
42700;SDS011;28316;49.504;8.526;2023-03-21T15:35:44;3.60;;;1.58;;
42700;SDS011;28316;49.504;8.526;2023-03-21T15:41:16;3.53;;;1.50;;
42700;SDS011;28316;49.504;8.526;2023-03-21T15:43:54;4.30;;;1.85;;
42700;SDS011;28316;49.504;8.526;2023-03-21T15:51:42;13.23;;;4.13;;
42700;SDS011;28316;49.504;8.526;2023-03-21T15:54:22;3.00;;;1.75;;
42700;SDS011;28316;49.504;8.526;2023-03-21T15:56:54;6.85;;;2.63;;
42700;SDS011;28316;49.504;8.526;2023-03-21T15:59:29;2.70;;;1.75;;
42700;SDS011;28316;49.504;8.526;2023-03-21T16:01:59;3.88;;;1.55;;
42700;SDS011;28316;49.504;8.526;2023-03-21T16:04:26;4.43;;;2.10;;
42700;SDS011;28316;49.504;8.526;2023-03-21T16:06:55;2.83;;;1.40;;
42700;SDS011;28316;49.504;8.526;2023-03-21T16:09:27;3.03;;;1.77;;
42700;SDS011;28316;49.504;8.526;2023-03-21T16:12:11;3.42;;;1.95;;
42700;SDS011;28316;49.504;8.526;2023-03-21T16:14:39;6.13;;;1.98;;
42700;SDS011;28316;49.504;8.526;2023-03-21T16:20:17;7.30;;;1.60;;
42700;SDS011;28316;49.504;8.526;2023-03-21T16:25:12;2.30;;;1.48;;
42700;SDS011;28316;49.504;8.526;2023-03-21T16:27:39;5.20;;;2.15;;
42700;SDS011;28316;49.504;8.526;2023-03-21T16:30:05;7.32;;;3.47;;
42700;SDS011;28316;49.504;8.526;2023-03-21T16:32:33;3.67;;;1.83;;
42700;SDS011;28316;49.504;8.526;2023-03-21T16:34:59;5.00;;;2.05;;
42700;SDS011;28316;49.504;8.526;2023-03-21T16:37:25;2.80;;;1.58;;
42700;SDS011;28316;49.504;8.526;2023-03-21T16:39:51;5.47;;;2.42;;
42700;SDS011;28316;49.504;8.526;2023-03-21T16:42:17;6.40;;;2.83;;
42700;SDS011;28316;49.504;8.526;2023-03-21T16:44:42;5.28;;;1.80;;
42700;SDS011;28316;49.504;8.526;2023-03-21T16:47:15;3.90;;;1.90;;
42700;SDS011;28316;49.504;8.526;2023-03-21T16:49:47;4.65;;;2.03;;
42700;SDS011;28316;49.504;8.526;2023-03-21T16:52:15;4.70;;;1.55;;
42700;SDS011;28316;49.504;8.526;2023-03-21T16:54:41;5.32;;;2.30;;
42700;SDS011;28316;49.504;8.526;2023-03-21T16:57:08;6.85;;;2.10;;
42700;SDS011;28316;49.504;8.526;2023-03-21T16:59:51;4.10;;;1.98;;
42700;SDS011;28316;49.504;8.526;2023-03-21T17:02:18;3.58;;;1.80;;
42700;SDS011;28316;49.504;8.526;2023-03-21T17:04:44;8.13;;;2.30;;
42700;SDS011;28316;49.504;8.526;2023-03-21T17:07:11;4.07;;;2.08;;
42700;SDS011;28316;49.504;8.526;2023-03-21T17:09:40;3.63;;;1.73;;
42700;SDS011;28316;49.504;8.526;2023-03-21T17:12:11;4.57;;;2.30;;
42700;SDS011;28316;49.504;8.526;2023-03-21T17:14:43;9.15;;;2.25;;
42700;SDS011;28316;49.504;8.526;2023-03-21T17:17:13;4.85;;;2.60;;
42700;SDS011;28316;49.504;8.526;2023-03-21T17:19:41;4.63;;;2.38;;
42700;SDS011;28316;49.504;8.526;2023-03-21T17:22:07;5.25;;;2.70;;